Portada
METAR-TAF:

METAR-TAF

Aeropuertos :

Badajoz, España

Aeropuerto de Badajoz

latitud: 38-53N, longitud: 006-49W, altitud: 185 m

Observación

El informe se hizo hace 56 minutos, a las 11:00 UTC
Viento 2 kt con dirección variable
Temperatura 27°C
Humedad 28%
Presión 1021 hPa
Visibilidad 10 km o más
sin nubes por debajo de 1500 m y sin presencia de cumulonimbus.

METAR: LEBZ 241100Z VRB02KT CAVOK 27/07 Q1021

Hora: 13:56 (11:56 UTC)

Pronóstico

El informe se hizo hace 56 minutos, a las 11:00 UTC
Pronóstico válido del 24 a las 12 UTC al 25 a las 12 UTC
Viento 8 kt del oeste
Visibilidad 10 km o más
sin nubes por debajo de 1500 m y sin presencia de cumulonimbus.

TAF: LEBZ 241100Z 2412/2512 28008KT CAVOK TX32/2416Z TN15/2506Z

Observaciones y pronósticos meteorológicos de más de 4000 aeropuertos (mensajes METAR y TAF).

Los puntos amarillos y rojos representan las estaciones disponibles.

Ponga el ratón en el punto deseado para ver el nombre de la estación.

Haga clic para ver las observaciones y los pronósticos meteorológicos.

Para cambiar el mapa : haga clic en los botones verdes con una cruz de color negro para hacer un zoom, en el botón verde con un guión para alejar o en las flechas verdes para mapas adyacentes.


METAR-TAF: